ADDS METAR Data INFO
IDs: Format: Raw Decoded Include TAF

Data at: 1205 UTC 21 Jun 2018

KRIC 211154Z 21006KT 10SM FEW010 SCT120 BKN300 24/22 A2977 RMK AO2 SLP083 60000 70045 T02390217 10239 20211 51008
KRIC 211054Z 19003KT 10SM FEW120 SCT300 22/21 A2976 RMK AO2 SLP082 T02220211
KRIC 210954Z 16004KT 10SM FEW120 SCT300 21/21 A2975 RMK AO2 SLP078 T02110206
KRIC 210854Z 21003KT 10SM FEW120 SCT300 22/21 A2974 RMK AO2 SLP075 60000 T02220206 56016
KRIC 210754Z 23003KT 10SM SCT120 OVC300 22/21 A2975 RMK AO2 RAE25 SLP075 P0000 T02170206
KRIC 210654Z 23005KT 10SM -RA FEW070 SCT110 OVC300 22/21 A2977 RMK AO2 RAB34 PRESFR SLP083 P0000 T02220206
KRIC 210554Z 28007KT 10SM SCT060 BKN300 22/21 A2979 RMK AO2 SLP091 60043 T02220211 10250 20217 56022
KRIC 210454Z 24004KT 10SM FEW085 SCT110 BKN300 22/21 A2980 RMK AO2 RAE00 SLP092 P0000 T02220206 403170217
KRIC 210354Z 00000KT 10SM -RA FEW035 BKN110 OVC300 22/21 A2981 RMK AO2 SLP096 P0043 T02170206
KRIC 210330Z 16005KT 10SM -RA BKN034 BKN110 OVC300 22/21 A2981 RMK AO2 PRESFR P0043 T02170206
KRIC 210322Z 15005KT 2SM -RA BR BKN032 BKN055 BKN110 22/21 A2982 RMK AO2 PRESFR P0043 T02170206
KRIC 210314Z 25007KT 1SM R34/P6000FT +RA BR BKN032 OVC055 22/21 A2984 RMK AO2 P0029 T02170206
KRIC 210303Z 30010G20KT 1 3/4SM +RA BR SCT036 OVC055 22/20 A2986 RMK AO2 P0009 T02220200
KRIC 210254Z 31011KT 10SM -RA FEW036 OVC055 24/20 A2986 RMK AO2 WSHFT 0203 RAB23E33B53 SLP113 P0000 60000 T02390200 53021
KRIC 210244Z 32013KT 10SM FEW016 BKN035 BKN055 OVC150 24/20 A2986 RMK AO2 WSHFT 0203 RAB23E33 P0000 T02390200
KRIC 210218Z 31010KT 10SM SCT007 BKN012 OVC025 25/23 A2986 RMK AO2 WSHFT 0203 T02500228
KRIC 210213Z 32011KT 10SM SCT007 BKN150 BKN300 25/23 A2985 RMK AO2 T02500228
KRIC 210154Z 22005KT 10SM SCT020 BKN150 BKN300 24/23 A2982 RMK AO2 SLP100 T02440233
KRIC 210054Z 20006KT 10SM BKN230 24/23 A2979 RMK AO2 SLP090 T02390228
KRIC 202354Z 18004KT 10SM BKN150 BKN300 24/23 A2980 RMK AO2 RAE08 SLP093 P0000 60002 T02440233 10317 20239 56005
KRIC 202254Z 11005KT 10SM -RA FEW023 SCT055 BKN080 24/23 A2980 RMK AO2 RAB17 SLP096 P0001 T02390228
KRIC 202154Z 12003KT 10SM FEW028 SCT040 BKN120 OVC200 25/22 A2980 RMK AO2 TSE23 SLP093 T02500222
KRIC 202129Z 10006KT 10SM FEW026 BKN035 BKN110 24/22 A2981 RMK AO2 TSE23 T02440217
KRIC 202054Z 04007KT 10SM TS SCT026 BKN035CB OVC110 26/22 A2981 RMK AO2 RAB23E50 TSB40 SLP098 OCNL LTGIC NE AND S TS E MOV E P0001 60001 T02560222 55007
KRIC 202046Z 01006KT 10SM -TSRA SCT024 BKN035CB OVC110 26/22 A2981 RMK AO2 RAB23 TSB40 OCNL LTGIC NE AND S TS OHD MOV E P0001 T02560217
KRIC 201954Z 16007KT 10SM SCT038 BKN060CB BKN100 30/23 A2979 RMK AO2 SLP091 CB SW AND N MOV E T03000233
KRIC 201854Z 19007KT 10SM FEW046 SCT055 SCT110 32/23 A2981 RMK AO2 SLP097 T03170233
KRIC 201754Z VRB03KT 10SM FEW029 SCT044 BKN055 30/23 A2983 RMK AO2 SLP105 T03000228 10311 20250 58017
KRIC 201654Z 20006KT 10SM FEW030 SCT035 OVC075 29/22 A2986 RMK AO2 SLP114 T02940222
KRIC 201554Z 07003KT 10SM FEW020 SCT065 SCT160 BKN300 30/22 A2987 RMK AO2 SLP118 T03000222
KRIC 201454Z VRB03KT 10SM FEW020 SCT070 BKN160 28/22 A2988 RMK AO2 SLP122 T02780217 51000
KRIC 201354Z VRB03KT 10SM FEW015 SCT050 BKN070 27/22 A2988 RMK AO2 SLP123 T02670217
KRIC 201254Z 00000KT 10SM FEW010 SCT050 26/22 A2989 RMK AO2 SLP126 T02610222
KRIC 201154Z 35004KT 10SM FEW004 FEW070 25/23 A2988 RMK AO2 SLP123 70125 T02500228 10250 20228 51007
KRIC 201054Z 27003KT 7SM FEW004 FEW250 23/22 A2988 RMK AO2 SLP120 T02330222
KRIC 200954Z 35003KT 4SM BR SCT003 SCT070 23/22 A2987 RMK AO2 SLP118 T02280217
KRIC 200854Z 35004KT 7SM BKN004 23/22 A2986 RMK AO2 SLP114 T02280222 55003
KRIC 200754Z 36007KT 9SM OVC004 23/23 A2986 RMK AO2 SLP113 T02330228
KRIC 200729Z 36004KT 10SM OVC004 23/23 A2986 RMK AO2 T02330228
KRIC 200654Z 30005KT 10SM OVC005 24/23 A2986 RMK AO2 SLP114 T02390228
KRIC 200554Z 29004KT 10SM FEW003 BKN007 23/23 A2987 RMK AO2 SLP117 60005 T02330228 10244 20233 56005
KRIC 200522Z 27004KT 10SM FEW003 BKN009 24/23 A2988 RMK AO2 T02390228
KRIC 200454Z 26004KT 10SM FEW004 24/23 A2988 RMK AO2 SLP120 T02390228 403670233
KRIC 200354Z 26003KT 10SM SCT004 BKN230 24/23 A2987 RMK AO2 SLP117 T02390233
KRIC 200335Z 30004KT 10SM SCT003 OVC230 24/23 A2987 RMK AO2 T02390233
KRIC 200254Z 30004KT 10SM BKN006 BKN075 OVC180 24/23 A2989 RMK AO2 RAE10 SLP122 P0000 60005 T02440233 53002
KRIC 200154Z 25004KT 8SM -RA SCT005 SCT075 OVC140 24/23 A2988 RMK AO2 SLP122 P0001 T02440233
KRIC 200054Z 00000KT 8SM -RA FEW005 FEW090 OVC120 24/23 A2987 RMK AO2 TSE52 SLP116 CB DSNT S-SW P0004 T02390228